sensor_id;sensor_type;location;lat;lon;timestamp;temperature;humidity
10891;DHT22;5498;50.928;11.598;2022-12-20T00:02:34;5.50;87.20
10891;DHT22;5498;50.928;11.598;2022-12-20T00:05:36;5.70;87.50
10891;DHT22;5498;50.928;11.598;2022-12-20T00:08:38;5.50;87.50
10891;DHT22;5498;50.928;11.598;2022-12-20T00:11:41;5.40;87.60
10891;DHT22;5498;50.928;11.598;2022-12-20T00:14:44;5.40;87.20
10891;DHT22;5498;50.928;11.598;2022-12-20T00:17:46;5.70;87.90
10891;DHT22;5498;50.928;11.598;2022-12-20T00:20:56;5.50;88.00
10891;DHT22;5498;50.928;11.598;2022-12-20T00:24:02;5.50;88.10
10891;DHT22;5498;50.928;11.598;2022-12-20T00:27:04;5.60;88.20
10891;DHT22;5498;50.928;11.598;2022-12-20T00:30:09;5.70;88.00
10891;DHT22;5498;50.928;11.598;2022-12-20T00:33:11;5.60;88.10
10891;DHT22;5498;50.928;11.598;2022-12-20T00:36:14;5.70;87.90
10891;DHT22;5498;50.928;11.598;2022-12-20T00:39:17;5.70;88.10
10891;DHT22;5498;50.928;11.598;2022-12-20T00:42:22;5.80;87.80
10891;DHT22;5498;50.928;11.598;2022-12-20T00:45:25;5.80;88.10
10891;DHT22;5498;50.928;11.598;2022-12-20T00:48:28;5.80;88.30
10891;DHT22;5498;50.928;11.598;2022-12-20T00:51:34;5.80;88.30
10891;DHT22;5498;50.928;11.598;2022-12-20T00:54:36;5.90;88.10
10891;DHT22;5498;50.928;11.598;2022-12-20T00:57:38;5.90;88.00
10891;DHT22;5498;50.928;11.598;2022-12-20T01:00:41;5.90;88.20
10891;DHT22;5498;50.928;11.598;2022-12-20T01:03:43;5.90;88.50
10891;DHT22;5498;50.928;11.598;2022-12-20T01:06:45;6.00;88.80
10891;DHT22;5498;50.928;11.598;2022-12-20T01:09:47;6.00;88.70
10891;DHT22;5498;50.928;11.598;2022-12-20T01:12:49;6.30;88.80
10891;DHT22;5498;50.928;11.598;2022-12-20T01:15:53;6.20;88.80
10891;DHT22;5498;50.928;11.598;2022-12-20T01:18:56;6.10;89.10
10891;DHT22;5498;50.928;11.598;2022-12-20T01:21:58;6.20;89.20
10891;DHT22;5498;50.928;11.598;2022-12-20T01:25:00;6.30;89.80
10891;DHT22;5498;50.928;11.598;2022-12-20T01:28:02;6.40;90.10
10891;DHT22;5498;50.928;11.598;2022-12-20T01:31:06;6.40;90.20
10891;DHT22;5498;50.928;11.598;2022-12-20T01:34:09;6.50;90.30
10891;DHT22;5498;50.928;11.598;2022-12-20T01:37:13;6.50;90.30
10891;DHT22;5498;50.928;11.598;2022-12-20T01:40:15;6.60;90.20
10891;DHT22;5498;50.928;11.598;2022-12-20T01:43:18;6.70;90.20
10891;DHT22;5498;50.928;11.598;2022-12-20T01:46:23;7.00;90.40
10891;DHT22;5498;50.928;11.598;2022-12-20T01:49:29;7.30;90.50
10891;DHT22;5498;50.928;11.598;2022-12-20T01:52:38;6.90;90.30
10891;DHT22;5498;50.928;11.598;2022-12-20T01:55:41;7.00;90.20
10891;DHT22;5498;50.928;11.598;2022-12-20T01:58:47;7.00;90.10
10891;DHT22;5498;50.928;11.598;2022-12-20T02:01:50;7.10;90.20
10891;DHT22;5498;50.928;11.598;2022-12-20T02:04:54;7.10;90.10
10891;DHT22;5498;50.928;11.598;2022-12-20T02:07:56;7.20;90.10
10891;DHT22;5498;50.928;11.598;2022-12-20T02:11:09;7.20;90.20
10891;DHT22;5498;50.928;11.598;2022-12-20T02:14:31;7.20;90.20
10891;DHT22;5498;50.928;11.598;2022-12-20T02:17:46;7.70;90.40
10891;DHT22;5498;50.928;11.598;2022-12-20T02:21:13;7.30;90.10
10891;DHT22;5498;50.928;11.598;2022-12-20T02:25:02;7.20;90.10
10891;DHT22;5498;50.928;11.598;2022-12-20T02:28:25;7.20;90.20
10891;DHT22;5498;50.928;11.598;2022-12-20T02:31:48;7.10;90.20
10891;DHT22;5498;50.928;11.598;2022-12-20T02:34:55;7.00;90.20
10891;DHT22;5498;50.928;11.598;2022-12-20T02:37:59;7.00;90.20
10891;DHT22;5498;50.928;11.598;2022-12-20T02:41:05;7.00;90.40
10891;DHT22;5498;50.928;11.598;2022-12-20T02:44:15;6.90;90.50
10891;DHT22;5498;50.928;11.598;2022-12-20T02:47:41;6.80;90.70
10891;DHT22;5498;50.928;11.598;2022-12-20T02:50:51;6.80;90.80
10891;DHT22;5498;50.928;11.598;2022-12-20T02:53:55;6.80;90.90
10891;DHT22;5498;50.928;11.598;2022-12-20T02:57:01;6.90;91.10
10891;DHT22;5498;50.928;11.598;2022-12-20T03:00:12;6.90;91.10
10891;DHT22;5498;50.928;11.598;2022-12-20T03:03:17;6.90;91.30
10891;DHT22;5498;50.928;11.598;2022-12-20T03:06:25;7.00;91.30
10891;DHT22;5498;50.928;11.598;2022-12-20T03:09:27;7.00;91.20
10891;DHT22;5498;50.928;11.598;2022-12-20T03:12:29;6.90;91.30
10891;DHT22;5498;50.928;11.598;2022-12-20T03:15:31;6.90;91.20
10891;DHT22;5498;50.928;11.598;2022-12-20T03:18:34;6.90;91.40
10891;DHT22;5498;50.928;11.598;2022-12-20T03:21:39;6.90;91.60
10891;DHT22;5498;50.928;11.598;2022-12-20T03:24:41;6.80;91.50
10891;DHT22;5498;50.928;11.598;2022-12-20T03:27:43;6.80;91.70
10891;DHT22;5498;50.928;11.598;2022-12-20T03:30:46;6.70;91.80
10891;DHT22;5498;50.928;11.598;2022-12-20T03:33:51;6.80;91.90
10891;DHT22;5498;50.928;11.598;2022-12-20T03:36:53;6.70;91.90
10891;DHT22;5498;50.928;11.598;2022-12-20T03:39:55;6.90;92.10
10891;DHT22;5498;50.928;11.598;2022-12-20T03:42:57;6.60;92.00
10891;DHT22;5498;50.928;11.598;2022-12-20T03:45:59;6.60;92.10
10891;DHT22;5498;50.928;11.598;2022-12-20T03:49:02;6.70;92.20
10891;DHT22;5498;50.928;11.598;2022-12-20T03:52:04;6.70;92.40
10891;DHT22;5498;50.928;11.598;2022-12-20T03:55:10;6.70;92.40
10891;DHT22;5498;50.928;11.598;2022-12-20T03:58:13;6.60;92.40
10891;DHT22;5498;50.928;11.598;2022-12-20T04:01:23;6.70;92.30
10891;DHT22;5498;50.928;11.598;2022-12-20T04:04:27;6.70;92.50
10891;DHT22;5498;50.928;11.598;2022-12-20T04:07:29;6.70;92.40
10891;DHT22;5498;50.928;11.598;2022-12-20T04:10:31;6.70;92.40
10891;DHT22;5498;50.928;11.598;2022-12-20T04:13:53;6.70;92.40
10891;DHT22;5498;50.928;11.598;2022-12-20T04:16:55;6.70;92.30
10891;DHT22;5498;50.928;11.598;2022-12-20T04:19:59;7.10;92.50
10891;DHT22;5498;50.928;11.598;2022-12-20T04:23:18;6.80;92.10
10891;DHT22;5498;50.928;11.598;2022-12-20T04:26:21;6.80;92.10
10891;DHT22;5498;50.928;11.598;2022-12-20T04:29:24;6.70;92.20
10891;DHT22;5498;50.928;11.598;2022-12-20T04:32:27;7.00;92.40
10891;DHT22;5498;50.928;11.598;2022-12-20T04:35:30;6.90;92.20
10891;DHT22;5498;50.928;11.598;2022-12-20T04:38:32;7.00;92.10
10891;DHT22;5498;50.928;11.598;2022-12-20T04:41:34;7.10;92.10
10891;DHT22;5498;50.928;11.598;2022-12-20T04:44:36;6.80;91.90
10891;DHT22;5498;50.928;11.598;2022-12-20T04:47:38;7.00;91.90
10891;DHT22;5498;50.928;11.598;2022-12-20T04:50:42;6.80;91.90
10891;DHT22;5498;50.928;11.598;2022-12-20T04:53:44;6.90;91.90
10891;DHT22;5498;50.928;11.598;2022-12-20T04:56:49;6.90;91.90
10891;DHT22;5498;50.928;11.598;2022-12-20T04:59:51;6.90;92.00
10891;DHT22;5498;50.928;11.598;2022-12-20T05:02:53;6.90;91.90
10891;DHT22;5498;50.928;11.598;2022-12-20T05:05:57;6.90;91.90
10891;DHT22;5498;50.928;11.598;2022-12-20T05:08:59;6.90;91.90
10891;DHT22;5498;50.928;11.598;2022-12-20T05:12:01;6.90;92.00
10891;DHT22;5498;50.928;11.598;2022-12-20T05:15:03;6.90;92.10
10891;DHT22;5498;50.928;11.598;2022-12-20T05:18:09;7.00;92.10
10891;DHT22;5498;50.928;11.598;2022-12-20T05:21:13;7.00;91.80
10891;DHT22;5498;50.928;11.598;2022-12-20T05:24:32;7.10;91.70
10891;DHT22;5498;50.928;11.598;2022-12-20T05:27:52;7.10;91.60
10891;DHT22;5498;50.928;11.598;2022-12-20T05:30:54;7.30;91.60
10891;DHT22;5498;50.928;11.598;2022-12-20T05:33:56;7.20;91.60
10891;DHT22;5498;50.928;11.598;2022-12-20T05:36:59;7.20;91.40
10891;DHT22;5498;50.928;11.598;2022-12-20T05:40:01;7.20;91.50
10891;DHT22;5498;50.928;11.598;2022-12-20T05:43:04;7.20;91.60
10891;DHT22;5498;50.928;11.598;2022-12-20T05:46:10;7.20;91.60
10891;DHT22;5498;50.928;11.598;2022-12-20T05:49:12;7.30;91.60
10891;DHT22;5498;50.928;11.598;2022-12-20T05:52:15;7.30;91.20
10891;DHT22;5498;50.928;11.598;2022-12-20T05:55:17;7.40;91.10
10891;DHT22;5498;50.928;11.598;2022-12-20T05:58:20;7.40;90.90
10891;DHT22;5498;50.928;11.598;2022-12-20T06:01:22;7.80;91.00
10891;DHT22;5498;50.928;11.598;2022-12-20T06:04:24;7.30;90.70
10891;DHT22;5498;50.928;11.598;2022-12-20T06:07:28;7.30;90.70
10891;DHT22;5498;50.928;11.598;2022-12-20T06:10:31;7.30;90.90
10891;DHT22;5498;50.928;11.598;2022-12-20T06:13:34;7.30;90.90
10891;DHT22;5498;50.928;11.598;2022-12-20T06:16:36;7.30;91.10
10891;DHT22;5498;50.928;11.598;2022-12-20T06:19:40;7.80;90.80
10891;DHT22;5498;50.928;11.598;2022-12-20T06:22:44;7.30;90.60
10891;DHT22;5498;50.928;11.598;2022-12-20T06:25:46;7.30;90.50
10891;DHT22;5498;50.928;11.598;2022-12-20T06:28:50;7.30;90.70
10891;DHT22;5498;50.928;11.598;2022-12-20T06:31:55;7.30;90.50
10891;DHT22;5498;50.928;11.598;2022-12-20T06:34:57;7.30;90.80
10891;DHT22;5498;50.928;11.598;2022-12-20T06:38:00;7.30;90.80
10891;DHT22;5498;50.928;11.598;2022-12-20T06:41:03;7.30;90.70
10891;DHT22;5498;50.928;11.598;2022-12-20T06:44:05;7.30;91.60
10891;DHT22;5498;50.928;11.598;2022-12-20T06:47:07;7.50;92.20
10891;DHT22;5498;50.928;11.598;2022-12-20T06:50:09;7.60;91.70
10891;DHT22;5498;50.928;11.598;2022-12-20T06:53:13;7.70;91.90
10891;DHT22;5498;50.928;11.598;2022-12-20T06:56:15;7.80;92.00
10891;DHT22;5498;50.928;11.598;2022-12-20T06:59:17;8.10;91.50
10891;DHT22;5498;50.928;11.598;2022-12-20T07:02:20;7.80;91.40
10891;DHT22;5498;50.928;11.598;2022-12-20T07:05:22;8.00;91.30
10891;DHT22;5498;50.928;11.598;2022-12-20T07:08:25;7.90;91.30
10891;DHT22;5498;50.928;11.598;2022-12-20T07:11:27;7.90;91.00
10891;DHT22;5498;50.928;11.598;2022-12-20T07:14:29;7.80;90.60
10891;DHT22;5498;50.928;11.598;2022-12-20T07:17:31;7.80;90.30
10891;DHT22;5498;50.928;11.598;2022-12-20T07:20:34;7.70;90.00
10891;DHT22;5498;50.928;11.598;2022-12-20T07:23:39;7.70;90.30
10891;DHT22;5498;50.928;11.598;2022-12-20T07:26:43;7.60;90.20
10891;DHT22;5498;50.928;11.598;2022-12-20T07:29:46;7.50;90.30
10891;DHT22;5498;50.928;11.598;2022-12-20T07:32:48;7.50;90.60
10891;DHT22;5498;50.928;11.598;2022-12-20T07:35:51;7.40;90.60
10891;DHT22;5498;50.928;11.598;2022-12-20T07:38:54;7.40;90.70
10891;DHT22;5498;50.928;11.598;2022-12-20T07:41:56;7.40;90.90
10891;DHT22;5498;50.928;11.598;2022-12-20T07:44:58;7.40;90.90
10891;DHT22;5498;50.928;11.598;2022-12-20T07:48:00;7.40;90.90
10891;DHT22;5498;50.928;11.598;2022-12-20T07:51:06;7.30;90.90
10891;DHT22;5498;50.928;11.598;2022-12-20T07:54:14;7.30;91.20
10891;DHT22;5498;50.928;11.598;2022-12-20T07:57:21;7.80;91.40
10891;DHT22;5498;50.928;11.598;2022-12-20T08:00:25;7.30;91.30
10891;DHT22;5498;50.928;11.598;2022-12-20T08:03:31;7.40;91.30
10891;DHT22;5498;50.928;11.598;2022-12-20T08:06:37;7.40;91.50
10891;DHT22;5498;50.928;11.598;2022-12-20T08:09:43;7.40;91.50
10891;DHT22;5498;50.928;11.598;2022-12-20T08:12:46;7.40;91.40
10891;DHT22;5498;50.928;11.598;2022-12-20T08:15:49;7.40;91.40
10891;DHT22;5498;50.928;11.598;2022-12-20T08:18:51;7.40;91.30
10891;DHT22;5498;50.928;11.598;2022-12-20T08:21:53;7.30;91.40
10891;DHT22;5498;50.928;11.598;2022-12-20T08:24:57;7.30;91.30
10891;DHT22;5498;50.928;11.598;2022-12-20T08:27:59;7.30;91.40
10891;DHT22;5498;50.928;11.598;2022-12-20T08:31:05;7.40;91.40
10891;DHT22;5498;50.928;11.598;2022-12-20T08:34:08;7.30;91.40
10891;DHT22;5498;50.928;11.598;2022-12-20T08:37:10;7.30;91.40
10891;DHT22;5498;50.928;11.598;2022-12-20T08:40:14;7.20;91.30
10891;DHT22;5498;50.928;11.598;2022-12-20T08:43:16;7.20;91.40
10891;DHT22;5498;50.928;11.598;2022-12-20T08:46:18;7.10;91.30
10891;DHT22;5498;50.928;11.598;2022-12-20T08:49:20;7.60;91.50
10891;DHT22;5498;50.928;11.598;2022-12-20T08:52:22;7.30;91.40
10891;DHT22;5498;50.928;11.598;2022-12-20T08:55:26;7.20;91.60
10891;DHT22;5498;50.928;11.598;2022-12-20T08:58:28;6.70;91.50
10891;DHT22;5498;50.928;11.598;2022-12-20T09:01:30;7.20;91.60
10891;DHT22;5498;50.928;11.598;2022-12-20T09:04:33;7.20;91.60
10891;DHT22;5498;50.928;11.598;2022-12-20T09:07:35;7.20;91.70
10891;DHT22;5498;50.928;11.598;2022-12-20T09:10:38;7.20;91.70
10891;DHT22;5498;50.928;11.598;2022-12-20T09:13:42;7.20;91.70
10891;DHT22;5498;50.928;11.598;2022-12-20T09:16:45;7.40;91.90
10891;DHT22;5498;50.928;11.598;2022-12-20T09:19:48;7.20;92.20
10891;DHT22;5498;50.928;11.598;2022-12-20T09:22:49;7.20;91.80
10891;DHT22;5498;50.928;11.598;2022-12-20T09:25:53;7.30;91.70
10891;DHT22;5498;50.928;11.598;2022-12-20T09:28:55;7.40;91.70
10891;DHT22;5498;50.928;11.598;2022-12-20T09:31:57;7.40;91.50
10891;DHT22;5498;50.928;11.598;2022-12-20T09:35:00;8.00;91.70
10891;DHT22;5498;50.928;11.598;2022-12-20T09:38:02;7.50;91.50
10891;DHT22;5498;50.928;11.598;2022-12-20T09:41:14;7.50;91.30
10891;DHT22;5498;50.928;11.598;2022-12-20T09:44:22;7.50;91.40
10891;DHT22;5498;50.928;11.598;2022-12-20T09:47:26;7.90;91.60
10891;DHT22;5498;50.928;11.598;2022-12-20T09:50:38;7.60;91.30
10891;DHT22;5498;50.928;11.598;2022-12-20T09:53:54;7.50;91.40
10891;DHT22;5498;50.928;11.598;2022-12-20T09:57:06;7.50;91.40
10891;DHT22;5498;50.928;11.598;2022-12-20T10:00:16;7.70;91.40
10891;DHT22;5498;50.928;11.598;2022-12-20T10:03:22;7.60;91.30
10891;DHT22;5498;50.928;11.598;2022-12-20T10:06:38;7.60;91.20
10891;DHT22;5498;50.928;11.598;2022-12-20T10:10:00;7.70;91.10
10891;DHT22;5498;50.928;11.598;2022-12-20T10:13:26;7.70;91.10
10891;DHT22;5498;50.928;11.598;2022-12-20T10:16:41;7.80;90.90
10891;DHT22;5498;50.928;11.598;2022-12-20T10:20:01;7.80;90.70
10891;DHT22;5498;50.928;11.598;2022-12-20T10:23:18;7.90;90.50
10891;DHT22;5498;50.928;11.598;2022-12-20T10:26:26;7.90;90.50
10891;DHT22;5498;50.928;11.598;2022-12-20T10:29:29;7.90;90.30
10891;DHT22;5498;50.928;11.598;2022-12-20T10:32:39;7.90;90.10
10891;DHT22;5498;50.928;11.598;2022-12-20T10:35:41;7.90;90.00
10891;DHT22;5498;50.928;11.598;2022-12-20T10:38:45;7.90;89.50
10891;DHT22;5498;50.928;11.598;2022-12-20T10:41:48;7.90;89.40
10891;DHT22;5498;50.928;11.598;2022-12-20T10:44:52;7.90;89.50
10891;DHT22;5498;50.928;11.598;2022-12-20T10:47:58;7.90;89.60
10891;DHT22;5498;50.928;11.598;2022-12-20T10:51:03;7.90;89.40
10891;DHT22;5498;50.928;11.598;2022-12-20T10:54:21;7.90;89.90
10891;DHT22;5498;50.928;11.598;2022-12-20T10:57:25;8.00;90.10
10891;DHT22;5498;50.928;11.598;2022-12-20T11:00:32;8.10;90.00
10891;DHT22;5498;50.928;11.598;2022-12-20T11:03:49;8.20;89.90
10891;DHT22;5498;50.928;11.598;2022-12-20T11:06:53;8.40;90.00
10891;DHT22;5498;50.928;11.598;2022-12-20T11:09:57;8.50;89.90
10891;DHT22;5498;50.928;11.598;2022-12-20T11:13:01;8.60;90.00
10891;DHT22;5498;50.928;11.598;2022-12-20T11:16:08;8.70;89.20
10891;DHT22;5498;50.928;11.598;2022-12-20T11:19:42;8.70;88.40
10891;DHT22;5498;50.928;11.598;2022-12-20T11:23:01;8.80;88.20
10891;DHT22;5498;50.928;11.598;2022-12-20T11:26:22;8.80;87.90
10891;DHT22;5498;50.928;11.598;2022-12-20T11:33:30;8.90;87.50
10891;DHT22;5498;50.928;11.598;2022-12-20T11:36:54;8.90;87.10
10891;DHT22;5498;50.928;11.598;2022-12-20T11:40:21;8.90;86.50
10891;DHT22;5498;50.928;11.598;2022-12-20T11:43:44;8.90;85.30
10891;DHT22;5498;50.928;11.598;2022-12-20T11:47:03;8.80;84.80
10891;DHT22;5498;50.928;11.598;2022-12-20T11:50:27;8.70;85.20
10891;DHT22;5498;50.928;11.598;2022-12-20T11:53:49;8.70;85.50
10891;DHT22;5498;50.928;11.598;2022-12-20T11:57:00;8.60;85.40
10891;DHT22;5498;50.928;11.598;2022-12-20T12:00:06;8.60;85.30
10891;DHT22;5498;50.928;11.598;2022-12-20T12:03:17;8.50;85.50
10891;DHT22;5498;50.928;11.598;2022-12-20T12:06:27;8.50;85.40
10891;DHT22;5498;50.928;11.598;2022-12-20T12:09:34;8.50;85.60
10891;DHT22;5498;50.928;11.598;2022-12-20T12:12:43;8.50;85.70
10891;DHT22;5498;50.928;11.598;2022-12-20T12:15:49;8.40;85.80
10891;DHT22;5498;50.928;11.598;2022-12-20T12:18:57;8.50;86.00
10891;DHT22;5498;50.928;11.598;2022-12-20T12:22:05;8.40;86.00
10891;DHT22;5498;50.928;11.598;2022-12-20T12:25:14;8.50;86.60
10891;DHT22;5498;50.928;11.598;2022-12-20T12:28:19;8.50;86.10
10891;DHT22;5498;50.928;11.598;2022-12-20T12:31:26;8.50;85.70
10891;DHT22;5498;50.928;11.598;2022-12-20T12:34:40;8.50;85.40
10891;DHT22;5498;50.928;11.598;2022-12-20T12:38:14;8.60;85.70
10891;DHT22;5498;50.928;11.598;2022-12-20T12:41:32;8.50;85.40
10891;DHT22;5498;50.928;11.598;2022-12-20T12:44:55;8.50;85.60
10891;DHT22;5498;50.928;11.598;2022-12-20T12:48:01;8.50;85.40
10891;DHT22;5498;50.928;11.598;2022-12-20T12:51:06;8.50;85.60
10891;DHT22;5498;50.928;11.598;2022-12-20T12:54:17;8.60;85.90
10891;DHT22;5498;50.928;11.598;2022-12-20T12:57:21;8.60;85.50
10891;DHT22;5498;50.928;11.598;2022-12-20T13:00:48;8.60;85.30
10891;DHT22;5498;50.928;11.598;2022-12-20T13:04:21;8.60;85.90
10891;DHT22;5498;50.928;11.598;2022-12-20T13:07:26;8.60;85.80
10891;DHT22;5498;50.928;11.598;2022-12-20T13:10:57;8.60;85.60
10891;DHT22;5498;50.928;11.598;2022-12-20T13:14:49;8.60;85.70
10891;DHT22;5498;50.928;11.598;2022-12-20T13:17:53;8.70;85.60
10891;DHT22;5498;50.928;11.598;2022-12-20T13:21:31;8.60;85.40
10891;DHT22;5498;50.928;11.598;2022-12-20T13:24:52;8.70;85.40
10891;DHT22;5498;50.928;11.598;2022-12-20T13:31:45;7.90;85.30
10891;DHT22;5498;50.928;11.598;2022-12-20T13:34:53;8.60;84.70
10891;DHT22;5498;50.928;11.598;2022-12-20T13:37:58;8.70;85.10
10891;DHT22;5498;50.928;11.598;2022-12-20T13:41:11;8.60;85.20
10891;DHT22;5498;50.928;11.598;2022-12-20T13:44:41;8.60;85.20
10891;DHT22;5498;50.928;11.598;2022-12-20T13:47:47;8.70;85.20
10891;DHT22;5498;50.928;11.598;2022-12-20T13:50:52;8.60;84.90
10891;DHT22;5498;50.928;11.598;2022-12-20T13:53:57;8.70;85.20
10891;DHT22;5498;50.928;11.598;2022-12-20T13:57:05;8.70;85.20
10891;DHT22;5498;50.928;11.598;2022-12-20T14:00:16;8.70;85.10
10891;DHT22;5498;50.928;11.598;2022-12-20T14:03:22;8.60;85.20
10891;DHT22;5498;50.928;11.598;2022-12-20T14:06:26;8.60;85.40
10891;DHT22;5498;50.928;11.598;2022-12-20T14:09:30;8.60;85.20
10891;DHT22;5498;50.928;11.598;2022-12-20T14:12:34;8.60;85.30
10891;DHT22;5498;50.928;11.598;2022-12-20T14:15:37;8.60;85.00
10891;DHT22;5498;50.928;11.598;2022-12-20T14:18:39;8.60;84.90
10891;DHT22;5498;50.928;11.598;2022-12-20T14:21:42;8.60;85.00
10891;DHT22;5498;50.928;11.598;2022-12-20T14:24:45;8.60;85.40
10891;DHT22;5498;50.928;11.598;2022-12-20T14:27:47;8.60;85.00
10891;DHT22;5498;50.928;11.598;2022-12-20T14:30:55;8.60;85.10
10891;DHT22;5498;50.928;11.598;2022-12-20T14:34:02;8.70;85.10
10891;DHT22;5498;50.928;11.598;2022-12-20T14:37:26;8.60;85.20
10891;DHT22;5498;50.928;11.598;2022-12-20T14:40:30;8.60;85.60
10891;DHT22;5498;50.928;11.598;2022-12-20T14:43:33;8.60;85.50
10891;DHT22;5498;50.928;11.598;2022-12-20T14:46:38;8.50;85.90
10891;DHT22;5498;50.928;11.598;2022-12-20T14:49:47;8.50;86.10
10891;DHT22;5498;50.928;11.598;2022-12-20T14:52:51;8.50;86.50
10891;DHT22;5498;50.928;11.598;2022-12-20T14:55:54;8.40;86.40
10891;DHT22;5498;50.928;11.598;2022-12-20T14:59:12;8.40;86.70
10891;DHT22;5498;50.928;11.598;2022-12-20T15:02:34;8.40;87.00
10891;DHT22;5498;50.928;11.598;2022-12-20T15:05:44;8.30;86.90
10891;DHT22;5498;50.928;11.598;2022-12-20T15:08:47;8.30;87.20
10891;DHT22;5498;50.928;11.598;2022-12-20T15:11:50;8.30;87.00
10891;DHT22;5498;50.928;11.598;2022-12-20T15:14:52;8.20;87.30
10891;DHT22;5498;50.928;11.598;2022-12-20T15:17:55;8.30;86.80
10891;DHT22;5498;50.928;11.598;2022-12-20T15:21:02;8.40;87.20
10891;DHT22;5498;50.928;11.598;2022-12-20T15:24:11;8.20;87.10
10891;DHT22;5498;50.928;11.598;2022-12-20T15:27:14;8.20;87.00
10891;DHT22;5498;50.928;11.598;2022-12-20T15:30:17;8.20;86.70
10891;DHT22;5498;50.928;11.598;2022-12-20T15:33:22;8.20;86.60
10891;DHT22;5498;50.928;11.598;2022-12-20T15:36:27;8.20;86.90
10891;DHT22;5498;50.928;11.598;2022-12-20T15:39:30;8.20;87.00
10891;DHT22;5498;50.928;11.598;2022-12-20T15:42:33;8.20;87.20
10891;DHT22;5498;50.928;11.598;2022-12-20T15:45:35;8.10;87.10
10891;DHT22;5498;50.928;11.598;2022-12-20T15:48:38;8.10;87.20
10891;DHT22;5498;50.928;11.598;2022-12-20T15:51:41;8.10;87.20
10891;DHT22;5498;50.928;11.598;2022-12-20T15:54:43;8.00;87.60
10891;DHT22;5498;50.928;11.598;2022-12-20T15:57:45;8.00;87.60
10891;DHT22;5498;50.928;11.598;2022-12-20T16:00:47;8.00;87.60
10891;DHT22;5498;50.928;11.598;2022-12-20T16:03:51;8.00;88.00
10891;DHT22;5498;50.928;11.598;2022-12-20T16:06:53;8.00;88.00
10891;DHT22;5498;50.928;11.598;2022-12-20T16:09:55;7.90;88.00
10891;DHT22;5498;50.928;11.598;2022-12-20T16:12:57;7.90;88.10
10891;DHT22;5498;50.928;11.598;2022-12-20T16:15:59;7.90;88.20
10891;DHT22;5498;50.928;11.598;2022-12-20T16:19:05;7.80;88.70
10891;DHT22;5498;50.928;11.598;2022-12-20T16:22:12;7.80;88.60
10891;DHT22;5498;50.928;11.598;2022-12-20T16:25:24;7.80;89.00
10891;DHT22;5498;50.928;11.598;2022-12-20T16:28:27;7.70;89.00
10891;DHT22;5498;50.928;11.598;2022-12-20T16:31:32;7.70;88.90
10891;DHT22;5498;50.928;11.598;2022-12-20T16:34:36;7.60;89.30
10891;DHT22;5498;50.928;11.598;2022-12-20T16:37:38;7.60;89.40
10891;DHT22;5498;50.928;11.598;2022-12-20T16:40:40;7.50;89.60
10891;DHT22;5498;50.928;11.598;2022-12-20T16:43:42;7.40;89.70
10891;DHT22;5498;50.928;11.598;2022-12-20T16:46:44;7.30;90.00
10891;DHT22;5498;50.928;11.598;2022-12-20T16:49:48;7.30;90.00
10891;DHT22;5498;50.928;11.598;2022-12-20T16:52:50;7.30;90.10
10891;DHT22;5498;50.928;11.598;2022-12-20T16:55:52;7.30;90.30
10891;DHT22;5498;50.928;11.598;2022-12-20T16:58:54;7.60;90.20
10891;DHT22;5498;50.928;11.598;2022-12-20T17:01:57;7.20;90.30
10891;DHT22;5498;50.928;11.598;2022-12-20T17:05:02;7.10;90.30
10891;DHT22;5498;50.928;11.598;2022-12-20T17:08:05;7.30;90.50
10891;DHT22;5498;50.928;11.598;2022-12-20T17:11:14;7.10;90.50
10891;DHT22;5498;50.928;11.598;2022-12-20T17:14:17;7.10;90.70
10891;DHT22;5498;50.928;11.598;2022-12-20T17:17:19;7.00;90.50
10891;DHT22;5498;50.928;11.598;2022-12-20T17:20:22;7.00;90.60
10891;DHT22;5498;50.928;11.598;2022-12-20T17:23:25;7.00;90.70
10891;DHT22;5498;50.928;11.598;2022-12-20T17:26:28;7.00;90.70
10891;DHT22;5498;50.928;11.598;2022-12-20T17:29:30;7.00;90.80
10891;DHT22;5498;50.928;11.598;2022-12-20T17:32:32;7.00;90.60
10891;DHT22;5498;50.928;11.598;2022-12-20T17:35:36;7.00;90.60
10891;DHT22;5498;50.928;11.598;2022-12-20T17:38:37;7.00;90.60
10891;DHT22;5498;50.928;11.598;2022-12-20T17:41:39;7.00;90.70
10891;DHT22;5498;50.928;11.598;2022-12-20T17:44:42;7.00;90.80
10891;DHT22;5498;50.928;11.598;2022-12-20T17:47:45;6.90;90.80
10891;DHT22;5498;50.928;11.598;2022-12-20T17:50:48;6.90;90.70
10891;DHT22;5498;50.928;11.598;2022-12-20T17:53:51;6.90;90.80
10891;DHT22;5498;50.928;11.598;2022-12-20T17:56:54;6.90;90.90
10891;DHT22;5498;50.928;11.598;2022-12-20T17:59:56;6.80;90.80
10891;DHT22;5498;50.928;11.598;2022-12-20T18:02:59;6.80;90.80
10891;DHT22;5498;50.928;11.598;2022-12-20T18:06:06;6.80;90.90
10891;DHT22;5498;50.928;11.598;2022-12-20T18:09:13;6.80;91.00
10891;DHT22;5498;50.928;11.598;2022-12-20T18:12:16;6.80;91.00
10891;DHT22;5498;50.928;11.598;2022-12-20T18:15:19;6.80;90.90
10891;DHT22;5498;50.928;11.598;2022-12-20T18:18:21;6.80;90.80
10891;DHT22;5498;50.928;11.598;2022-12-20T18:21:26;6.80;91.10
10891;DHT22;5498;50.928;11.598;2022-12-20T18:24:28;6.80;91.10
10891;DHT22;5498;50.928;11.598;2022-12-20T18:27:30;6.80;90.90
10891;DHT22;5498;50.928;11.598;2022-12-20T18:30:33;6.80;91.00
10891;DHT22;5498;50.928;11.598;2022-12-20T18:33:36;6.90;90.90
10891;DHT22;5498;50.928;11.598;2022-12-20T18:36:39;6.90;90.80
10891;DHT22;5498;50.928;11.598;2022-12-20T18:39:41;6.90;90.80
10891;DHT22;5498;50.928;11.598;2022-12-20T18:42:43;6.90;90.90
10891;DHT22;5498;50.928;11.598;2022-12-20T18:45:45;6.90;91.00
10891;DHT22;5498;50.928;11.598;2022-12-20T18:48:49;7.00;91.10
10891;DHT22;5498;50.928;11.598;2022-12-20T18:51:53;7.00;91.30
10891;DHT22;5498;50.928;11.598;2022-12-20T18:54:55;6.90;91.30
10891;DHT22;5498;50.928;11.598;2022-12-20T18:57:58;6.90;91.40
10891;DHT22;5498;50.928;11.598;2022-12-20T19:01:02;7.00;91.50
10891;DHT22;5498;50.928;11.598;2022-12-20T19:04:06;6.90;91.60
10891;DHT22;5498;50.928;11.598;2022-12-20T19:07:10;6.90;91.60
10891;DHT22;5498;50.928;11.598;2022-12-20T19:10:12;6.90;91.50
10891;DHT22;5498;50.928;11.598;2022-12-20T19:13:14;6.90;91.60
10891;DHT22;5498;50.928;11.598;2022-12-20T19:16:19;6.90;91.50
10891;DHT22;5498;50.928;11.598;2022-12-20T19:19:21;6.90;91.60
10891;DHT22;5498;50.928;11.598;2022-12-20T19:22:24;6.90;91.50
10891;DHT22;5498;50.928;11.598;2022-12-20T19:25:26;6.80;91.40
10891;DHT22;5498;50.928;11.598;2022-12-20T19:28:29;6.90;91.40
10891;DHT22;5498;50.928;11.598;2022-12-20T19:31:33;6.90;91.50
10891;DHT22;5498;50.928;11.598;2022-12-20T19:34:35;6.90;91.30
10891;DHT22;5498;50.928;11.598;2022-12-20T19:37:40;7.00;91.10
10891;DHT22;5498;50.928;11.598;2022-12-20T19:40:41;7.00;90.80
10891;DHT22;5498;50.928;11.598;2022-12-20T19:43:43;7.10;90.70
10891;DHT22;5498;50.928;11.598;2022-12-20T19:46:47;7.20;90.60
10891;DHT22;5498;50.928;11.598;2022-12-20T19:49:48;7.30;90.30
10891;DHT22;5498;50.928;11.598;2022-12-20T19:52:52;7.30;90.00
10891;DHT22;5498;50.928;11.598;2022-12-20T19:55:54;7.40;90.00
10891;DHT22;5498;50.928;11.598;2022-12-20T19:58:55;7.40;89.70
10891;DHT22;5498;50.928;11.598;2022-12-20T20:01:57;7.40;89.70